ADDS METAR Data INFO
IDs: Format: Raw Decoded Include TAF

Data at: 0407 UTC 11 Dec 2017

KIYA 110355Z AUTO 00000KT 10SM CLR 03/03 A3037 RMK AO2 T00310031 401551005
KIYA 110335Z AUTO 00000KT 10SM CLR 04/04 A3037 RMK AO2 T00390039
KIYA 110315Z AUTO 00000KT 10SM CLR 04/04 A3037 RMK AO2 T00400039
KIYA 110255Z AUTO 21003KT 10SM CLR 05/04 A3037 RMK AO2 T00520035
KIYA 110235Z AUTO 23003KT 10SM CLR 05/04 A3038 RMK AO2 T00520036
KIYA 110215Z AUTO 00000KT 10SM CLR 05/03 A3037 RMK AO2 T00530034
KIYA 110155Z AUTO 30005KT 10SM CLR 06/03 A3037 RMK AO2 T00550028
KIYA 110135Z AUTO 28004KT 10SM CLR 05/03 A3037 RMK AO2 T00510030
KIYA 110115Z AUTO 30006KT 10SM CLR 05/03 A3037 RMK AO2 T00510034
KIYA 110055Z AUTO 31005KT 10SM CLR 06/03 A3036 RMK AO2 T00550030
KIYA 110035Z AUTO 26003KT 10SM CLR 06/03 A3036 RMK AO2 T00580030
KIYA 110015Z AUTO 00000KT 10SM CLR 07/03 A3036 RMK AO2 T00690027
KIYA 102355Z AUTO 00000KT 10SM CLR 09/02 A3035 RMK AO2 T00850022 10155 20084
KIYA 102335Z AUTO 00000KT 10SM CLR 09/02 A3035 RMK AO2 T00880022
KIYA 102315Z AUTO 00000KT 10SM CLR 11/01 A3035 RMK AO2 T01100011
KIYA 102255Z AUTO 26003KT 10SM CLR 11/01 A3035 RMK AO2 T01120012
KIYA 102235Z AUTO 27005KT 10SM CLR 13/00 A3036 RMK AO2 T01300000
KIYA 102215Z AUTO 29005KT 10SM CLR 14/00 A3036 RMK AO2 T01401003
KIYA 102155Z AUTO 30007KT 10SM CLR 14/M01 A3036 RMK AO2 T01421012
KIYA 102135Z AUTO 28008KT 10SM CLR 15/M01 A3035 RMK AO2 T01491014
KIYA 102115Z AUTO 29004KT 10SM CLR 15/M02 A3035 RMK AO2 T01511025
KIYA 102055Z AUTO 28005KT 10SM CLR 15/M03 A3035 RMK AO2 T01511030
KIYA 102035Z AUTO 31006KT 10SM CLR 15/M02 A3035 RMK AO2 T01541025
KIYA 102015Z AUTO 25003KT 10SM CLR 15/M01 A3035 RMK AO2 T01481014
KIYA 101955Z AUTO 29006KT 10SM CLR 15/M02 A3036 RMK AO2 T01531025
KIYA 101935Z AUTO 30003KT 10SM CLR 15/M04 A3036 RMK AO2 T01501038
KIYA 101915Z AUTO 36004KT 10SM CLR 15/M05 A3036 RMK AO2 T01501048
KIYA 101855Z AUTO 36006KT 10SM CLR 15/M02 A3037 RMK AO2 T01501016
KIYA 101835Z AUTO 31006KT 10SM CLR 15/M02 A3038 RMK AO2 T01491022
KIYA 101815Z AUTO 31005KT 10SM CLR 15/M02 A3039 RMK AO2 T01461020
KIYA 101755Z AUTO 36004KT 10SM CLR 14/M01 A3040 RMK AO2 T01391010 10140 21005
KIYA 101735Z AUTO 33005KT 10SM CLR 14/00 A3041 RMK AO2 T01370002
KIYA 101715Z AUTO 00000KT 10SM CLR 13/02 A3042 RMK AO2 T01300016
KIYA 101655Z AUTO 00000KT 10SM CLR 12/03 A3043 RMK AO2 T01200028
KIYA 101635Z AUTO 00000KT 10SM CLR 11/03 A3043 RMK AO2 T01110031
KIYA 101615Z AUTO 00000KT 10SM CLR 10/04 A3044 RMK AO2 T01010038
KIYA 101555Z AUTO 00000KT 10SM CLR 09/04 A3044 RMK AO2 T00910038
KIYA 101535Z AUTO 33003KT 10SM CLR 08/03 A3044 RMK AO2 T00790029
KIYA 101515Z AUTO 34003KT 10SM CLR 07/03 A3044 RMK AO2 T00730032
KIYA 101455Z AUTO 34004KT 10SM CLR 06/03 A3043 RMK AO2 T00620028
KIYA 101435Z AUTO 34004KT 10SM CLR 06/03 A3042 RMK AO2 T00550029
KIYA 101415Z AUTO 00000KT 10SM CLR 04/04 A3041 RMK AO2 T00380036
KIYA 101355Z AUTO 00000KT 10SM CLR 01/01 A3040 RMK AO2 T00130013
KIYA 101335Z AUTO 00000KT 10SM CLR 00/00 A3039 RMK AO2 T00000000
KIYA 101315Z AUTO 00000KT 10SM CLR 00/00 A3038 RMK AO2 T00000000
KIYA 101255Z AUTO 00000KT 10SM CLR 00/00 A3038 RMK AO2 T00000000
KIYA 101235Z AUTO 00000KT 10SM CLR 00/00 A3037 RMK AO2 T00020002
KIYA 101215Z AUTO 00000KT 10SM CLR 01/01 A3037 RMK AO2 T00100010
KIYA 101155Z AUTO 00000KT 10SM CLR 01/01 A3036 RMK AO2 T00120012 10020 20005
KIYA 101135Z AUTO 00000KT 10SM CLR 01/01 A3036 RMK AO2 T00110011
KIYA 101115Z AUTO 00000KT 10SM CLR 01/01 A3036 RMK AO2 T00140014
KIYA 101055Z AUTO 00000KT 10SM CLR 02/02 A3036 RMK AO2 T00150015
KIYA 101035Z AUTO 00000KT 10SM CLR 02/02 A3035 RMK AO2 T00160016
KIYA 101015Z AUTO 00000KT 10SM CLR 02/02 A3035 RMK AO2 T00200020
KIYA 100955Z AUTO 00000KT 10SM CLR 01/01 A3036 RMK AO2 T00130013
KIYA 100935Z AUTO 31003KT 10SM CLR 01/01 A3035 RMK AO2 T00080008
KIYA 100915Z AUTO 32003KT 10SM CLR 01/01 A3035 RMK AO2 T00120012
KIYA 100855Z AUTO 00000KT 10SM CLR 01/01 A3035 RMK AO2 T00070007
KIYA 100835Z AUTO 00000KT 10SM CLR 01/01 A3035 RMK AO2 T00120012
KIYA 100815Z AUTO 00000KT 3SM BR CLR 01/01 A3034 RMK AO2 T00130013
KIYA 100755Z AUTO 00000KT 10SM CLR 01/01 A3035 RMK AO2 T00100010
KIYA 100735Z AUTO 00000KT 10SM CLR 01/01 A3035 RMK AO2 T00140014
KIYA 100715Z AUTO 00000KT 10SM CLR 01/01 A3035 RMK AO2 T00110011
KIYA 100655Z AUTO 00000KT 5SM BR CLR 02/02 A3035 RMK AO2 T00150015
KIYA 100635Z AUTO 00000KT 10SM CLR 01/01 A3034 RMK AO2 T00130013
KIYA 100615Z AUTO 00000KT 5SM BR CLR 01/01 A3034 RMK AO2 T00110011
KIYA 100555Z AUTO 00000KT 10SM CLR 03/03 A3034 RMK AO2 T00250025 10064 20019
KIYA 100535Z AUTO 00000KT 10SM CLR 03/03 A3034 RMK AO2 T00290029
KIYA 100515Z AUTO 00000KT 10SM CLR 03/03 A3034 RMK AO2 T00290029
KIYA 100455Z AUTO 00000KT 10SM CLR 03/03 A3034 RMK AO2 T00320032
KIYA 100435Z AUTO 00000KT 10SM CLR 03/03 A3034 RMK AO2 T00300030
KIYA 100415Z AUTO 00000KT 10SM CLR 03/03 A3033 RMK AO2 T00310031
KIYA 100355Z AUTO 00000KT 10SM CLR 04/04 A3032 RMK AO2 T00350035 401211027
KIYA 100335Z AUTO 00000KT 10SM CLR 04/04 A3031 RMK AO2 T00420040
KIYA 100315Z AUTO 00000KT 10SM CLR 04/04 A3031 RMK AO2 T00420041
KIYA 100255Z AUTO 00000KT 10SM CLR 05/04 A3030 RMK AO2 T00470041
KIYA 100235Z AUTO 00000KT 10SM CLR 04/04 A3029 RMK AO2 T00370037
KIYA 100215Z AUTO 00000KT 10SM CLR 04/04 A3028 RMK AO2 T00420041
KIYA 100155Z AUTO 00000KT 10SM CLR 03/03 A3027 RMK AO2 T00340034
KIYA 100135Z AUTO 00000KT 10SM CLR 04/04 A3026 RMK AO2 T00370037
KIYA 100115Z AUTO 00000KT 10SM CLR 04/04 A3026 RMK AO2 T00400035
KIYA 100055Z AUTO 00000KT 10SM CLR 05/03 A3026 RMK AO2 T00490032
KIYA 100035Z AUTO 00000KT 10SM CLR 05/03 A3025 RMK AO2 T00490034
KIYA 100015Z AUTO 31006KT 10SM CLR 06/03 A3024 RMK AO2 T00640031
KIYA 092355Z AUTO 00000KT 10SM CLR 06/03 A3024 RMK AO2 T00560034 10121 20056
KIYA 092335Z AUTO 30004KT 10SM CLR 07/03 A3023 RMK AO2 T00690027
KIYA 092315Z AUTO 00000KT 10SM CLR 08/03 A3023 RMK AO2 T00750028
KIYA 092255Z AUTO 25003KT 10SM CLR 10/02 A3022 RMK AO2 T00960020
KIYA 092235Z AUTO 25004KT 10SM CLR 11/02 A3022 RMK AO2 T01060019
KIYA 092215Z AUTO 26005KT 10SM CLR 11/02 A3021 RMK AO2 T01120017
KIYA 092155Z AUTO 28003KT 10SM CLR 12/01 A3020 RMK AO2 T01160012
KIYA 092135Z AUTO 32005KT 10SM CLR 12/01 A3020 RMK AO2 T01170005
KIYA 092115Z AUTO 31007KT 10SM CLR 12/01 A3020 RMK AO2 T01200009
KIYA 092055Z AUTO 30008KT 10SM CLR 12/00 A3020 RMK AO2 T01191001
KIYA 092035Z AUTO 30008KT 10SM CLR 12/00 A3020 RMK AO2 T01181002
KIYA 092015Z AUTO 27006KT 10SM CLR 12/00 A3020 RMK AO2 T01150001
KIYA 091955Z AUTO 29008KT 10SM CLR 12/00 A3021 RMK AO2 T01161002
KIYA 091935Z AUTO 29008KT 10SM CLR 11/00 A3021 RMK AO2 T01121003
KIYA 091915Z AUTO 30009KT 10SM CLR 11/M01 A3022 RMK AO2 T01101006
KIYA 091855Z AUTO 30006KT 10SM CLR 10/00 A3023 RMK AO2 T01041003
KIYA 091835Z AUTO 31005KT 10SM CLR 10/00 A3023 RMK AO2 T01041003
KIYA 091815Z AUTO 27006KT 10SM CLR 10/M01 A3024 RMK AO2 T01001013
KIYA 091755Z AUTO 28008KT 10SM CLR 09/M02 A3025 RMK AO2 T00931017 10093 21027
KIYA 091735Z AUTO 30006KT 10SM CLR 09/M02 A3026 RMK AO2 T00931020
KIYA 091715Z AUTO 28006KT 10SM CLR 09/M02 A3027 RMK AO2 T00871025
KIYA 091655Z AUTO 26004KT 10SM CLR 08/M02 A3027 RMK AO2 T00811024
KIYA 091635Z AUTO 27007KT 10SM CLR 07/M02 A3028 RMK AO2 T00741023
KIYA 091615Z AUTO 27005KT 10SM CLR 07/M03 A3028 RMK AO2 T00691035